createdAt,value
2018-09-24T04:30:52.718Z,3
2018-09-24T04:37:24.028Z,7
2018-09-24T04:39:53.405Z,10
2018-09-24T04:41:24.289Z,13
2018-09-24T04:42:53.532Z,17
2018-09-24T04:44:24.483Z,20
2018-09-24T04:45:24.630Z,23
2018-09-24T04:45:53.804Z,27
2018-09-24T04:46:54.192Z,30
2018-09-24T04:47:24.720Z,33
2018-09-24T04:48:24.769Z,37
2018-09-24T04:48:53.948Z,40
2018-09-24T04:49:53.989Z,37
2018-09-24T04:50:24.888Z,40
2018-09-24T04:50:54.086Z,43
2018-09-24T04:51:24.937Z,47
2018-09-24T04:51:54.145Z,53
2018-09-24T04:52:25.000Z,63
2018-09-24T04:52:54.225Z,67
2018-09-24T04:53:25.121Z,73
2018-09-24T04:53:54.338Z,80
2018-09-24T04:54:25.143Z,87
2018-09-24T04:54:54.323Z,93
2018-09-24T04:55:25.253Z,100
2018-09-24T04:55:54.461Z,113
2018-09-24T04:56:25.274Z,127
2018-09-24T04:56:54.487Z,137
2018-09-24T04:57:25.372Z,150
2018-09-24T04:57:54.529Z,167
2018-09-24T04:58:25.497Z,180
2018-09-24T04:58:54.654Z,193
2018-09-24T04:59:25.511Z,210
2018-09-24T04:59:54.673Z,220
2018-09-24T05:00:25.569Z,233
2018-09-24T05:00:54.730Z,253
2018-09-24T05:01:25.634Z,273
2018-09-24T05:01:54.777Z,290
2018-09-24T05:02:25.671Z,303
2018-09-24T05:02:54.861Z,307
2018-09-24T05:03:25.773Z,313
2018-09-24T05:03:54.925Z,330
2018-09-24T05:04:25.825Z,340
2018-09-24T05:04:54.993Z,350
2018-09-24T05:05:25.879Z,357
2018-09-24T05:05:55.053Z,360
2018-09-24T05:06:25.942Z,367
2018-09-24T05:06:55.123Z,390
2018-09-24T05:07:26.013Z,420
2018-09-24T05:07:55.230Z,430
2018-09-24T05:08:26.136Z,443
2018-09-24T05:08:55.320Z,483
2018-09-24T05:09:26.161Z,533
2018-09-24T05:09:55.335Z,567
2018-09-24T05:10:26.250Z,590
2018-09-24T05:10:55.392Z,607
2018-09-24T05:11:26.347Z,640
2018-09-24T05:11:55.512Z,677
2018-09-24T05:12:26.370Z,720
2018-09-24T05:12:55.547Z,753
2018-09-24T05:13:26.496Z,787
2018-09-24T05:13:55.924Z,810
2018-09-24T05:14:26.493Z,833
2018-09-24T05:14:55.665Z,853
2018-09-24T05:15:26.549Z,893
2018-09-24T05:15:55.750Z,927
2018-09-24T05:16:26.656Z,957
2018-09-24T05:16:55.793Z,990
2018-09-24T05:17:26.776Z,1027
2018-09-24T05:17:55.861Z,1050
2018-09-24T05:18:26.739Z,1080
2018-09-24T05:18:55.925Z,1117
2018-09-24T05:19:26.961Z,1147
2018-09-24T05:19:56.020Z,1187
2018-09-24T05:20:26.929Z,1240
2018-09-24T05:20:56.079Z,1307
2018-09-24T05:21:27.033Z,1347
2018-09-24T05:21:56.210Z,1367
2018-09-24T05:22:27.072Z,1413
2018-09-24T05:22:56.265Z,1427
2018-09-24T05:23:27.139Z,1443
2018-09-24T05:23:56.338Z,1450
2018-09-24T05:24:27.179Z,1473
2018-09-24T05:24:56.392Z,1527
2018-09-24T05:25:27.275Z,1547
2018-09-24T05:25:56.464Z,1583
2018-09-24T05:26:27.338Z,1627
2018-09-24T05:26:56.560Z,1647
2018-09-24T05:27:27.419Z,1703
2018-09-24T05:27:56.607Z,1730
2018-09-24T05:28:27.521Z,1763
2018-09-24T05:28:56.656Z,1833
2018-09-24T05:29:27.548Z,1853
2018-09-24T05:29:56.792Z,1907
2018-09-24T05:30:27.618Z,1920
2018-09-24T05:30:56.830Z,1973
2018-09-24T05:31:27.688Z,2040
2018-09-24T05:31:56.896Z,2057
2018-09-24T05:32:27.797Z,2087
2018-09-24T05:32:56.983Z,2163
2018-09-24T05:33:27.867Z,2260
2018-09-24T05:33:57.072Z,2380
2018-09-24T05:34:27.999Z,2570
2018-09-24T05:34:57.107Z,2770
2018-09-24T05:35:27.968Z,2777
2018-09-24T05:35:57.214Z,2767
2018-09-24T05:36:28.123Z,2737
2018-09-24T05:36:57.257Z,2673
2018-09-24T05:37:28.166Z,2633
2018-09-24T05:37:57.397Z,2640
2018-09-24T05:38:28.232Z,2667
2018-09-24T05:38:57.369Z,2753
2018-09-24T05:39:28.339Z,2847
2018-09-24T05:39:57.499Z,3003
2018-09-24T05:40:28.372Z,3133
2018-09-24T05:40:57.513Z,3393
2018-09-24T05:41:28.417Z,3733
2018-09-24T05:41:57.601Z,3893
2018-09-24T05:42:28.481Z,4050
2018-09-24T05:42:57.721Z,4217
2018-09-24T05:43:28.572Z,4373
2018-09-24T05:43:57.738Z,4577
2018-09-24T05:44:28.617Z,4637
2018-09-24T05:44:57.882Z,4790
2018-09-24T05:45:28.745Z,5013
2018-09-24T05:45:57.881Z,5333
2018-09-24T05:46:28.776Z,5527
2018-09-24T05:46:57.923Z,5440
2018-09-24T05:47:28.828Z,5177
2018-09-24T05:47:58.043Z,4853
2018-09-24T05:48:28.895Z,4537
2018-09-24T05:48:58.095Z,4513
2018-09-24T05:49:28.945Z,4720
2018-09-24T05:49:58.127Z,5260
2018-09-24T05:50:29.005Z,6277
2018-09-24T05:50:58.227Z,8500
2018-09-24T05:51:29.079Z,10337
2018-09-24T05:51:58.302Z,10593
2018-09-24T05:52:29.224Z,9073
2018-09-24T05:52:58.395Z,7040
2018-09-24T05:53:29.226Z,5697
2018-09-24T05:53:58.443Z,5100
2018-09-24T05:54:29.333Z,5237
2018-09-24T05:54:58.508Z,5050
2018-09-24T05:55:29.353Z,4790
2018-09-24T05:55:58.544Z,4603
2018-09-24T05:56:29.427Z,4410
2018-09-24T05:56:58.600Z,4327
2018-09-24T05:57:29.535Z,4120
2018-09-24T05:57:58.657Z,4010
2018-09-24T05:58:29.571Z,4350
2018-09-24T05:58:58.783Z,5733
2018-09-24T05:59:29.634Z,7590
2018-09-24T05:59:59.044Z,7667
2018-09-24T06:00:29.770Z,6620
2018-09-24T06:00:58.865Z,5907
2018-09-24T06:01:29.774Z,5470
2018-09-24T06:01:58.928Z,5173
2018-09-24T06:02:29.872Z,4863
2018-09-24T06:02:59.020Z,4900
2018-09-24T06:03:29.907Z,5153
2018-09-24T06:03:59.083Z,5430
2018-09-24T06:04:30.009Z,5657
2018-09-24T06:04:59.420Z,5450
2018-09-24T06:05:30.066Z,4923
2018-09-24T06:05:59.238Z,4273
2018-09-24T06:06:30.147Z,4017
2018-09-24T06:06:59.307Z,4037
2018-09-24T06:07:30.230Z,4137
2018-09-24T06:07:59.409Z,4243
2018-09-24T06:08:30.266Z,4490
2018-09-24T06:08:59.478Z,4747
2018-09-24T06:09:30.350Z,5087
2018-09-24T06:09:59.631Z,5287
2018-09-24T06:10:30.433Z,5370
2018-09-24T06:10:59.603Z,5667
2018-09-24T06:11:30.473Z,5920
2018-09-24T06:11:59.657Z,6083
2018-09-24T06:12:30.532Z,6317
2018-09-24T06:12:59.729Z,6420
2018-09-24T06:13:30.648Z,6580
2018-09-24T06:13:59.838Z,6920
2018-09-24T06:14:30.699Z,6983
2018-09-24T06:14:59.934Z,7127
2018-09-24T06:15:30.796Z,7457
2018-09-24T06:15:59.932Z,7320
2018-09-24T06:16:30.781Z,7680
2018-09-24T06:16:59.998Z,8233
2018-09-24T06:17:30.867Z,9690
2018-09-24T06:18:00.030Z,11297
2018-09-24T06:18:30.915Z,13033
2018-09-24T06:19:00.154Z,14547
2018-09-24T06:19:31.036Z,14430
2018-09-24T06:20:00.276Z,14600
2018-09-24T06:20:31.054Z,12720
2018-09-24T06:21:01.549Z,12487
2018-09-24T06:21:31.139Z,12913
2018-09-24T06:22:01.015Z,12350
2018-09-24T06:22:31.177Z,12387
2018-09-24T06:23:01.044Z,12233
2018-09-24T06:23:31.325Z,11177
2018-09-24T06:24:01.544Z,9907
2018-09-24T06:24:31.609Z,9593
2018-09-24T06:25:01.480Z,9387
2018-09-24T06:25:31.468Z,9340
2018-09-24T06:26:01.529Z,8937
2018-09-24T06:26:31.528Z,7733
2018-09-24T06:27:01.644Z,7037
2018-09-24T06:27:31.555Z,6253
2018-09-24T06:28:00.968Z,6097
2018-09-24T06:28:31.750Z,5963
2018-09-24T06:29:01.415Z,6483
2018-09-24T06:29:31.801Z,7000
2018-09-24T06:30:01.723Z,7440
2018-09-24T06:30:31.783Z,7670
2018-09-24T06:31:01.583Z,8070
2018-09-24T06:31:31.858Z,8190
2018-09-24T06:32:01.532Z,8280
2018-09-24T06:32:31.915Z,8117
2018-09-24T06:33:01.102Z,8997
2018-09-24T06:33:31.992Z,10253
2018-09-24T06:34:01.181Z,10890
2018-09-24T06:34:32.328Z,11343
2018-09-24T06:35:01.541Z,12097
2018-09-24T06:35:32.152Z,11460
2018-09-24T06:36:01.681Z,11740
2018-09-24T06:36:32.207Z,11577
2018-09-24T06:37:01.711Z,11447
2018-09-24T06:37:32.346Z,10880
2018-09-24T06:38:01.625Z,10180
2018-09-24T06:38:32.381Z,9557
2018-09-24T06:39:01.575Z,7880
2018-09-24T06:39:32.513Z,6797
2018-09-24T06:40:01.621Z,6510
2018-09-24T06:40:31.637Z,6953
2018-09-24T06:41:01.704Z,7467
2018-09-24T06:41:32.605Z,7973
2018-09-24T06:42:01.761Z,7677
2018-09-24T06:42:32.696Z,8003
2018-09-24T06:43:01.790Z,8577
2018-09-24T06:43:32.727Z,11040
2018-09-24T06:44:01.851Z,14390
2018-09-24T06:44:32.827Z,15397
2018-09-24T06:45:01.930Z,14617
2018-09-24T06:45:32.816Z,13460
2018-09-24T06:46:02.006Z,12903
2018-09-24T06:46:32.974Z,12640
2018-09-24T06:47:02.078Z,12533
2018-09-24T06:47:33.032Z,13043
2018-09-24T06:48:02.209Z,13097
2018-09-24T06:48:33.057Z,12700
2018-09-24T06:49:02.217Z,11983
2018-09-24T06:49:33.205Z,12013
2018-09-24T06:50:02.326Z,12640
2018-09-24T06:50:33.240Z,13713
2018-09-24T06:51:02.390Z,14697
2018-09-24T06:51:33.253Z,14640
2018-09-24T06:52:02.480Z,14657
2018-09-24T06:52:33.339Z,16970
2018-09-24T06:53:02.528Z,16387
2018-09-24T06:53:33.402Z,15027
2018-09-24T06:54:02.607Z,14153
2018-09-24T06:54:33.516Z,14950
2018-09-24T06:55:02.624Z,15607
2018-09-24T06:55:33.515Z,16100
2018-09-24T06:56:02.731Z,15990
2018-09-24T06:56:33.624Z,15453
2018-09-24T06:57:02.847Z,15913
2018-09-24T06:57:33.679Z,16110
2018-09-24T06:58:02.868Z,17443
2018-09-24T06:58:33.732Z,19280
2018-09-24T06:59:02.920Z,19123
2018-09-24T06:59:33.893Z,18447
2018-09-24T07:00:03.009Z,17057
2018-09-24T07:00:33.884Z,16423
2018-09-24T07:01:03.061Z,15963
2018-09-24T07:01:33.907Z,15977
2018-09-24T07:02:03.120Z,16523
2018-09-24T07:02:33.973Z,17043
2018-09-24T07:03:03.158Z,16997
2018-09-24T07:03:34.056Z,17157
2018-09-24T07:04:03.256Z,18467
2018-09-24T07:04:34.128Z,19020
2018-09-24T07:05:03.320Z,19173
2018-09-24T07:05:34.302Z,18693
2018-09-24T07:06:03.386Z,17517
2018-09-24T07:06:34.234Z,17093
2018-09-24T07:07:03.448Z,16767
2018-09-24T07:07:34.329Z,17653
2018-09-24T07:08:03.559Z,17693
2018-09-24T07:08:34.448Z,16880
2018-09-24T07:09:03.574Z,14477
2018-09-24T07:09:34.533Z,13023
2018-09-24T07:10:03.663Z,12803
2018-09-24T07:10:34.550Z,12380
2018-09-24T07:11:03.707Z,12527
2018-09-24T07:11:33.751Z,12560
2018-09-24T07:12:03.763Z,12933
2018-09-24T07:12:34.677Z,13863
2018-09-24T07:13:03.825Z,15787
2018-09-24T07:13:34.715Z,17130
2018-09-24T07:14:03.904Z,17590
2018-09-24T07:14:34.978Z,17127
2018-09-24T07:15:03.978Z,14630
2018-09-24T07:15:34.859Z,12320
2018-09-24T07:16:04.069Z,10187
2018-09-24T07:16:34.963Z,9340
2018-09-24T07:17:35.014Z,9710
2018-09-24T07:18:04.193Z,9827
2018-09-24T07:18:35.084Z,9727
2018-09-24T07:19:04.261Z,9350
2018-09-24T07:19:35.241Z,9657
2018-09-24T07:20:04.375Z,10097
2018-09-24T07:20:35.221Z,10613
2018-09-24T07:21:04.474Z,10853
2018-09-24T07:21:35.357Z,11027
2018-09-24T07:22:04.512Z,11900
2018-09-24T07:22:35.417Z,14500
2018-09-24T07:23:04.572Z,19167
2018-09-24T07:23:35.494Z,24977
2018-09-24T07:24:04.632Z,28163
2018-09-24T07:24:35.753Z,27147
2018-09-24T07:25:04.649Z,25310
2018-09-24T07:25:35.567Z,22217
2018-09-24T07:26:04.722Z,22033
2018-09-24T07:26:35.629Z,21997
2018-09-24T07:27:04.781Z,21457
2018-09-24T07:27:35.772Z,18667
2018-09-24T07:28:05.050Z,15443
2018-09-24T07:28:35.753Z,13233
2018-09-24T07:29:04.922Z,12243
2018-09-24T07:29:35.960Z,11607
2018-09-24T07:30:04.969Z,11217
2018-09-24T07:30:35.879Z,10857
2018-09-24T07:31:05.035Z,11220
2018-09-24T07:31:35.926Z,12027
2018-09-24T07:32:05.097Z,12807
2018-09-24T07:32:36.007Z,13290
2018-09-24T07:33:05.220Z,14097
2018-09-24T07:33:36.045Z,15377
2018-09-24T07:34:05.273Z,16790
2018-09-24T07:34:36.187Z,16680
2018-09-24T07:35:05.300Z,14747
2018-09-24T07:35:36.217Z,12307
2018-09-24T07:36:05.440Z,10380
2018-09-24T07:36:36.337Z,9463
2018-09-24T07:37:05.503Z,9680
2018-09-24T07:37:36.354Z,9913
2018-09-24T07:38:05.559Z,10303
2018-09-24T07:38:36.457Z,10783
2018-09-24T07:39:05.632Z,12367
2018-09-24T07:39:36.515Z,14617
2018-09-24T07:40:05.683Z,16287
2018-09-24T07:40:36.579Z,16123
2018-09-24T07:41:05.755Z,15393
2018-09-24T07:41:36.633Z,15467
2018-09-24T07:42:05.828Z,16963
2018-09-24T07:42:36.716Z,18833
2018-09-24T07:43:05.972Z,21073
2018-09-24T07:43:36.851Z,23003
2018-09-24T07:44:05.972Z,24440
2018-09-24T07:44:36.814Z,24850
2018-09-24T07:45:06.035Z,25227
2018-09-24T07:45:36.879Z,25697
2018-09-24T07:46:06.084Z,25543
2018-09-24T07:46:36.952Z,23340
2018-09-24T07:47:06.330Z,22503
2018-09-24T07:47:37.036Z,21317
2018-09-24T07:48:06.251Z,19063
2018-09-24T07:48:37.119Z,17650
2018-09-24T07:49:06.338Z,16583
2018-09-24T07:49:37.158Z,16270
2018-09-24T07:50:06.396Z,16763
2018-09-24T07:50:37.234Z,17990
2018-09-24T07:51:06.467Z,19373
2018-09-24T07:51:37.302Z,20177
2018-09-24T07:52:06.702Z,20587
2018-09-24T07:52:37.395Z,19987
2018-09-24T07:53:06.548Z,18140
2018-09-24T07:53:37.482Z,17357
2018-09-24T07:54:06.615Z,18307
2018-09-24T07:54:37.541Z,20477
2018-09-24T07:55:06.722Z,21133
2018-09-24T07:55:37.609Z,20987
2018-09-24T07:56:06.730Z,18513
2018-09-24T07:56:37.632Z,16100
2018-09-24T07:57:06.994Z,15087
2018-09-24T07:57:37.787Z,17540
2018-09-24T07:58:07.070Z,21477
2018-09-24T07:58:37.923Z,24090
2018-09-24T07:59:07.105Z,26067
2018-09-24T07:59:37.983Z,25090
2018-09-24T08:00:07.163Z,23630
2018-09-24T08:00:38.086Z,21167
2018-09-24T08:01:07.276Z,19383
2018-09-24T08:01:38.153Z,17410
2018-09-24T08:02:07.357Z,15787
2018-09-24T08:02:38.188Z,13943
2018-09-24T08:03:07.385Z,12053
2018-09-24T08:03:38.289Z,10687
2018-09-24T08:04:07.481Z,9833
2018-09-24T08:04:38.355Z,9207
2018-09-24T08:05:07.524Z,9083
2018-09-24T08:05:38.406Z,9483
2018-09-24T08:06:07.580Z,9863
2018-09-24T08:06:38.494Z,10947
2018-09-24T08:07:07.669Z,11937
2018-09-24T08:07:38.598Z,13653
2018-09-24T08:08:07.706Z,14053
2018-09-24T08:08:38.653Z,15497
2018-09-24T08:09:07.792Z,16133
2018-09-24T08:09:38.673Z,18540
2018-09-24T08:10:07.838Z,21930
2018-09-24T08:10:38.758Z,21507
2018-09-24T08:11:07.903Z,23897
2018-09-24T08:11:38.816Z,27307
2018-09-24T08:12:07.973Z,24610
2018-09-24T08:12:38.885Z,27467
2018-09-24T08:13:08.091Z,33553
2018-09-24T08:13:38.942Z,47353
2018-09-24T08:14:08.118Z,29517
2018-09-24T08:14:39.005Z,27073
2018-09-24T08:15:08.175Z,24877
2018-09-24T08:15:39.042Z,24740
2018-09-24T08:16:08.222Z,26563
2018-09-24T08:16:39.134Z,34657
2018-09-24T08:17:08.299Z,47937
2018-09-24T08:17:39.193Z,31867
2018-09-24T08:18:08.380Z,28647
2018-09-24T08:18:39.269Z,32703
2018-09-24T08:19:08.442Z,16940
2018-09-24T08:19:39.360Z,14970
2018-09-24T08:20:08.535Z,13403
2018-09-24T08:20:39.429Z,13957
2018-09-24T08:21:08.677Z,17680
2018-09-24T08:21:39.468Z,26970
2018-09-24T08:22:08.647Z,49677
2018-09-24T08:22:39.509Z,31787
2018-09-24T08:23:08.722Z,33767
2018-09-24T08:23:39.593Z,67590
2018-09-24T08:24:08.823Z,33903
2018-09-24T08:24:39.711Z,33410
2018-09-24T08:25:08.847Z,42580
2018-09-24T08:25:39.751Z,37613
2018-09-24T08:26:08.926Z,35100
2018-09-24T08:26:39.768Z,41170
2018-09-24T08:27:08.991Z,26087
2018-09-24T08:27:39.845Z,27940
2018-09-24T08:28:09.052Z,24450
2018-09-24T08:28:39.897Z,21937
2018-09-24T08:29:09.133Z,21050
2018-09-24T08:29:39.960Z,21917
2018-09-24T08:30:09.202Z,23410
2018-09-24T08:30:40.096Z,25723
2018-09-24T08:31:09.261Z,28293
2018-09-24T08:31:40.108Z,32023
2018-09-24T08:32:09.335Z,43190
2018-09-24T08:32:40.170Z,44763
2018-09-24T08:33:09.381Z,42447
2018-09-24T08:33:40.327Z,39967
2018-09-24T08:34:09.452Z,43253
2018-09-24T08:34:40.310Z,34670
2018-09-24T08:35:09.498Z,28307
2018-09-24T08:35:40.392Z,25793
2018-09-24T08:36:09.631Z,26663
2018-09-24T08:36:40.428Z,28307
2018-09-24T08:37:09.659Z,30707
2018-09-24T08:37:40.514Z,30270
2018-09-24T08:38:09.783Z,26157
2018-09-24T08:38:40.583Z,27800
2018-09-24T08:39:09.770Z,25637
2018-09-24T08:39:40.652Z,24190
2018-09-24T08:40:09.823Z,25310
2018-09-24T08:40:40.724Z,25837
2018-09-24T08:41:09.900Z,25860
2018-09-24T08:41:40.782Z,27607
2018-09-24T08:42:09.985Z,32510
2018-09-24T08:42:40.843Z,53840
2018-09-24T08:43:10.053Z,68627
2018-09-24T08:43:40.902Z,44557
2018-09-24T08:44:10.206Z,35193
2018-09-24T08:44:40.969Z,26017
2018-09-24T08:45:10.177Z,17707
2018-09-24T08:45:41.026Z,15107
2018-09-24T08:46:10.405Z,13743
2018-09-24T08:46:41.151Z,13933
2018-09-24T08:47:10.311Z,16160
2018-09-24T08:47:41.181Z,19037
2018-09-24T08:48:10.379Z,22803
2018-09-24T08:48:41.279Z,26553
2018-09-24T08:49:10.413Z,28067
2018-09-24T08:49:41.316Z,26033
2018-09-24T08:50:10.482Z,21733
2018-09-24T08:50:41.424Z,19077
2018-09-24T08:51:10.577Z,20507
2018-09-24T08:51:41.438Z,26250
2018-09-24T08:52:10.603Z,32023
2018-09-24T08:52:41.540Z,33833
2018-09-24T08:53:11.036Z,32987
2018-09-24T08:53:41.608Z,32897
2018-09-24T08:54:10.730Z,29380
2018-09-24T08:54:41.748Z,25183
2018-09-24T08:55:10.813Z,24820
2018-09-24T08:55:41.754Z,27003
2018-09-24T08:56:10.873Z,29460
2018-09-24T08:56:41.883Z,38480
2018-09-24T08:57:11.000Z,37090
2018-09-24T08:57:41.889Z,51107
2018-09-24T08:58:11.039Z,35433
2018-09-24T08:58:41.929Z,36750
2018-09-24T08:59:11.150Z,37070
2018-09-24T08:59:42.043Z,35337
2018-09-24T09:00:11.175Z,30227
2018-09-24T09:00:42.116Z,28147
2018-09-24T09:01:11.258Z,32517
2018-09-24T09:01:42.155Z,37960
2018-09-24T09:02:11.348Z,40243
2018-09-24T09:02:42.282Z,76090
2018-09-24T09:03:11.422Z,34290
2018-09-24T09:03:42.264Z,27753
2018-09-24T09:04:11.475Z,37617
2018-09-24T09:04:42.418Z,16680
2018-09-24T09:05:11.509Z,48493
2018-09-24T09:05:42.417Z,16987
2018-09-24T09:06:11.637Z,55890
2018-09-24T09:06:42.468Z,54627
2018-09-24T09:07:11.670Z,29837
2018-09-24T09:07:42.588Z,58490
2018-09-24T09:08:11.788Z,38237
2018-09-24T09:08:42.612Z,65277
2018-09-24T09:09:11.825Z,70437
2018-09-24T09:09:42.705Z,54077
2018-09-24T09:10:11.857Z,69000
2018-09-24T09:10:42.725Z,23433
2018-09-24T09:11:11.969Z,23220
2018-09-24T09:11:42.830Z,64933
2018-09-24T09:12:11.992Z,64210
2018-09-24T09:12:42.022Z,52007
2018-09-24T09:13:12.079Z,51610
2018-09-24T09:13:42.957Z,61600
2018-09-24T09:14:12.143Z,61037
2018-09-24T09:14:43.260Z,39003
2018-09-24T09:15:12.211Z,53213
2018-09-24T09:15:43.070Z,34903
2018-09-24T09:16:12.379Z,54183
2018-09-24T09:16:43.173Z,56517
2018-09-24T09:17:12.351Z,58913
2018-09-24T09:17:43.251Z,60130
2018-09-24T09:18:12.385Z,66670
2018-09-24T09:18:43.316Z,43740
2018-09-24T09:19:12.526Z,68053
2018-09-24T09:19:43.408Z,67927
2018-09-24T09:20:12.561Z,43737
2018-09-24T09:20:43.449Z,64917
2018-09-24T09:21:12.627Z,36667
2018-09-24T09:21:43.519Z,18310
2018-09-24T09:22:12.694Z,64800
2018-09-24T09:22:43.596Z,65680
2018-09-24T09:23:12.745Z,66113
2018-09-24T09:23:43.630Z,23117
2018-09-24T09:24:12.871Z,24180
2018-09-24T09:24:43.787Z,72970
2018-09-24T09:25:12.949Z,74947
2018-09-24T09:25:43.773Z,68113
2018-09-24T09:26:12.947Z,75440
2018-09-24T09:26:43.844Z,42973
2018-09-24T09:27:13.027Z,50920
2018-09-24T09:27:43.959Z,41737
2018-09-24T09:28:13.140Z,83627
2018-09-24T09:28:44.005Z,85290
2018-09-24T09:29:13.253Z,83633
2018-09-24T09:29:44.345Z,41070
2018-09-24T09:30:13.310Z,38237
2018-09-24T09:30:44.137Z,28293
2018-09-24T09:31:13.369Z,32447
2018-09-24T09:31:44.201Z,24580
2018-09-24T09:32:13.436Z,29097
2018-09-24T09:32:44.264Z,32483
2018-09-24T09:33:13.497Z,77937
2018-09-24T09:33:44.354Z,79877
2018-09-24T09:34:13.514Z,59207
2018-09-24T09:34:44.475Z,83347
2018-09-24T09:35:13.612Z,44657
2018-09-24T09:35:44.505Z,54367
2018-09-24T09:36:13.646Z,81257
2018-09-24T09:36:44.557Z,37580
2018-09-24T09:37:13.710Z,66180
2018-09-24T09:37:44.682Z,36130
2018-09-24T09:38:13.787Z,28590
2018-09-24T09:38:44.675Z,26270
2018-09-24T09:39:13.885Z,30643
2018-09-24T09:39:44.800Z,38253
2018-09-24T09:40:13.902Z,43097
2018-09-24T09:40:44.817Z,73970
2018-09-24T09:41:14.153Z,35403
2018-09-24T09:41:44.919Z,57797
2018-09-24T09:42:14.026Z,63247
2018-09-24T09:42:44.951Z,27760
2018-09-24T09:43:14.084Z,26857
2018-09-24T09:43:44.999Z,31743
2018-09-24T09:44:14.164Z,39943
2018-09-24T09:44:45.126Z,43757
2018-09-24T09:45:14.235Z,90477
2018-09-24T09:45:45.148Z,33613
2018-09-24T09:46:14.333Z,24087
2018-09-24T09:46:45.268Z,20870
2018-09-24T09:47:14.443Z,22433
2018-09-24T09:47:45.283Z,28230
2018-09-24T09:48:14.467Z,35857
2018-09-24T09:48:45.394Z,43417
2018-09-24T09:49:14.559Z,51940
2018-09-24T09:49:45.474Z,73570
2018-09-24T09:50:14.644Z,58367
2018-09-24T09:50:45.480Z,31920
2018-09-24T09:51:14.715Z,25540
2018-09-24T09:51:45.537Z,24100
2018-09-24T09:52:14.726Z,17490
2018-09-24T09:52:45.577Z,17253
2018-09-24T09:53:14.849Z,16723
2018-09-24T09:53:45.653Z,14817
2018-09-24T09:54:14.885Z,13737
2018-09-24T09:54:45.796Z,16300
2018-09-24T09:55:14.924Z,20160
2018-09-24T09:55:45.790Z,24093
2018-09-24T09:56:14.997Z,25283
2018-09-24T09:56:45.846Z,23150
2018-09-24T09:57:15.069Z,20623
2018-09-24T09:57:45.905Z,18877
2018-09-24T09:58:15.175Z,17603
2018-09-24T09:58:45.990Z,15463
2018-09-24T09:59:15.294Z,13263
2018-09-24T09:59:46.094Z,11050
2018-09-24T10:00:15.294Z,9187
2018-09-24T10:00:46.122Z,7800
2018-09-24T10:01:15.361Z,7007
2018-09-24T10:01:46.230Z,6920
2018-09-24T10:02:15.377Z,7337
2018-09-24T10:02:46.254Z,8747
2018-09-24T10:03:15.500Z,10820
2018-09-24T10:03:46.320Z,13380
2018-09-24T10:04:15.548Z,14897
2018-09-24T10:04:46.549Z,13907
2018-09-24T10:05:15.565Z,13350
2018-09-24T10:05:46.499Z,11753
2018-09-24T10:06:15.690Z,9957
2018-09-24T10:06:46.553Z,8617
2018-09-24T10:07:15.696Z,8037
2018-09-24T10:07:46.586Z,9013
2018-09-24T10:08:15.768Z,10883
2018-09-24T10:08:46.638Z,12660
2018-09-24T10:09:15.819Z,13323
2018-09-24T10:09:46.725Z,16240
2018-09-24T10:10:15.892Z,19940
2018-09-24T10:10:47.084Z,24547
2018-09-24T10:11:15.997Z,26843
2018-09-24T10:11:46.841Z,27157
2018-09-24T10:12:16.020Z,25863
2018-09-24T10:12:46.925Z,26037
2018-09-24T10:13:16.080Z,48330
2018-09-24T10:13:46.987Z,27567
2018-09-24T10:14:16.173Z,32657
2018-09-24T10:14:47.042Z,35687
2018-09-24T10:15:16.298Z,38877
2018-09-24T10:15:47.125Z,83860
2018-09-24T10:16:16.332Z,83683
2018-09-24T10:16:47.198Z,54387
2018-09-24T10:17:16.419Z,65297
2018-09-24T10:17:47.247Z,56063
2018-09-24T10:18:16.444Z,46107
2018-09-24T10:18:47.350Z,34610
2018-09-24T10:19:16.523Z,33590
2018-09-24T10:19:47.394Z,34130
2018-09-24T10:20:16.594Z,36770
2018-09-24T10:20:47.714Z,40333
2018-09-24T10:21:16.662Z,45170
2018-09-24T10:21:47.576Z,49043
2018-09-24T10:22:16.774Z,86560
2018-09-24T10:22:47.773Z,52830
2018-09-24T10:23:16.776Z,34440
2018-09-24T10:23:47.705Z,72200
2018-09-24T10:24:16.847Z,31867
2018-09-24T10:24:47.768Z,29197
2018-09-24T10:25:16.895Z,25890
2018-09-24T10:25:47.921Z,23540
2018-09-24T10:26:16.963Z,23363
2018-09-24T10:26:47.909Z,24263
2018-09-24T10:27:17.044Z,26827
2018-09-24T10:27:47.976Z,27620
2018-09-24T10:28:17.147Z,26983
2018-09-24T10:28:48.075Z,28003
2018-09-24T10:29:17.164Z,30007
2018-09-24T10:29:48.126Z,31030
2018-09-24T10:30:17.271Z,30267
2018-09-24T10:30:48.180Z,31543
2018-09-24T10:31:17.316Z,39890
2018-09-24T10:31:48.231Z,63883
2018-09-24T10:32:17.389Z,37640
2018-09-24T10:32:48.282Z,83427
2018-09-24T10:33:17.476Z,80147
2018-09-24T10:33:48.451Z,69000
2018-09-24T10:34:17.508Z,76050
2018-09-24T10:34:48.420Z,74113
2018-09-24T10:35:17.617Z,72833
2018-09-24T10:35:48.786Z,72867
2018-09-24T10:36:17.662Z,72120
2018-09-24T10:36:48.542Z,71657
2018-09-24T10:37:17.719Z,70670
2018-09-24T10:37:48.619Z,70723
2018-09-24T10:38:17.853Z,71277
2018-09-24T10:38:48.678Z,72733
2018-09-24T10:39:17.835Z,74007
2018-09-24T10:39:48.799Z,76083
2018-09-24T10:40:17.940Z,79083
2018-09-24T10:40:48.865Z,82063
2018-09-24T10:41:18.004Z,84857
2018-09-24T10:41:48.844Z,88977
2018-09-24T10:42:18.691Z,91960
2018-09-24T10:42:48.916Z,99650
2018-09-24T10:43:18.186Z,66860
2018-09-24T10:43:48.978Z,73363
2018-09-24T10:44:18.249Z,44360
2018-09-24T10:44:49.051Z,42567
2018-09-24T10:45:18.239Z,41187
2018-09-24T10:45:49.168Z,42220
2018-09-24T10:46:18.366Z,46067
2018-09-24T10:46:49.179Z,49393
2018-09-24T10:47:18.406Z,50547
2018-09-24T10:47:49.240Z,50830
2018-09-24T10:48:18.454Z,49717
2018-09-24T10:48:49.422Z,49450
2018-09-24T10:49:18.606Z,47477
2018-09-24T10:49:49.387Z,45253
2018-09-24T10:50:18.565Z,39230
2018-09-24T10:50:49.489Z,32373
2018-09-24T10:51:18.638Z,25613
2018-09-24T10:51:49.776Z,21463
2018-09-24T10:52:18.671Z,19370
2018-09-24T10:52:49.645Z,18633
2018-09-24T10:53:18.733Z,19593
2018-09-24T10:53:49.631Z,20930
2018-09-24T10:54:18.850Z,19097
2018-09-24T10:54:49.733Z,16000
2018-09-24T10:55:18.867Z,12977
2018-09-24T10:55:49.786Z,10463
2018-09-24T10:56:18.940Z,9150
2018-09-24T10:56:49.817Z,8690
2018-09-24T10:57:19.023Z,8740
2018-09-24T10:57:49.915Z,8707
2018-09-24T10:58:19.106Z,8360
2018-09-24T10:58:49.955Z,7863
2018-09-24T10:59:19.500Z,7593
2018-09-24T10:59:50.056Z,7763
2018-09-24T11:00:19.225Z,8103
2018-09-24T11:00:50.081Z,8067
2018-09-24T11:01:19.308Z,7780
2018-09-24T11:01:50.187Z,7553
2018-09-24T11:02:19.348Z,7197
2018-09-24T11:02:50.221Z,6357
2018-09-24T11:03:19.459Z,5293
2018-09-24T11:03:50.304Z,4417
2018-09-24T11:04:19.535Z,4053
2018-09-24T11:04:50.528Z,3983
2018-09-24T11:05:19.550Z,4067
2018-09-24T11:05:50.435Z,4417
2018-09-24T11:06:19.663Z,5540
2018-09-24T11:06:50.549Z,7030
2018-09-24T11:07:19.679Z,9390
2018-09-24T11:07:50.608Z,11427
2018-09-24T11:08:19.744Z,12630
2018-09-24T11:08:50.660Z,12943
2018-09-24T11:09:20.088Z,15540
2018-09-24T11:09:50.743Z,20907
2018-09-24T11:10:19.923Z,27520
2018-09-24T11:10:50.865Z,31957
2018-09-24T11:11:19.997Z,34357
2018-09-24T11:11:50.887Z,35690
2018-09-24T11:12:20.063Z,31947
2018-09-24T11:12:50.957Z,28677
2018-09-24T11:13:20.143Z,25207
2018-09-24T11:13:51.008Z,28547
2018-09-24T11:14:20.188Z,33453
2018-09-24T11:14:51.078Z,69497
2018-09-24T11:15:20.303Z,75447
2018-09-24T11:15:51.284Z,36413
2018-09-24T11:16:20.439Z,34867
2018-09-24T11:16:51.364Z,25890